Time;durP1;ratioP1;P1;durP2;ratioP2;P2;SDS_P1;SDS_P2;PMS_P1;PMS_P2;Temp;Humidity;BMP_temperature;BMP_pressure;BME280_temperature;BME280_humidity;BME280_pressure;Samples;Min_cycle;Max_cycle;Signal;HPM_P1;HPM_P2
2022/04/02 16:36:06;;;;;;;;;;;;;;;6.02;32.95;99994.59;1783961;79;20171;-71
2022/04/02 16:38:35;;;;;;;;;;;;;;;5.92;33.01;99998.64;1755891;81;20142;-71
2022/04/02 16:41:05;;;;;;;;;;;;;;;5.87;33.11;100004.06;1753638;81;21158;-71
2022/04/02 16:43:31;;;;;;;;;;;;;;;5.81;33.16;100000.14;1763159;79;20140;-70
2022/04/02 16:46:06;;;;;;;;;;;;;;;5.78;33.23;100003.58;1777044;79;20968;-70
2022/04/02 16:48:32;;;;;;;;;;;;;;;5.73;33.32;100010.66;1765317;81;20208;-70
2022/04/02 16:51:04;;;;;;;;;;;;;;;5.68;33.39;100017.36;1767436;80;20223;-70
2022/04/02 16:53:29;;;;;;;;;;;;;;;5.64;33.46;100017.30;1753478;79;21147;-70
2022/04/02 16:55:55;;;;;;;;;;;;;;;5.57;33.55;100019.72;1755432;81;20338;-71
2022/04/02 16:58:21;;;;;;;;;;;;;;;5.50;33.61;100023.92;1755259;81;20188;-70
2022/04/02 17:00:47;;;;;;;;;;;;;;;5.47;33.67;100025.55;1755221;81;20213;-70
2022/04/02 17:03:21;;;;;;;;;;;;;;;5.42;33.76;100029.10;1775306;80;20471;-70
2022/04/02 17:05:50;;;;;;;;;;;;;;;5.35;33.83;100030.66;1771929;80;22125;-70
2022/04/02 17:08:17;;;;;;;;;;;;;;;5.30;33.91;100045.66;1767164;81;20145;-70
2022/04/02 17:10:52;;;;;;;;;;;;;;;5.24;33.98;100040.93;1766979;81;20457;-70
2022/04/02 17:13:24;;;;;;;;;;;;;;;5.17;34.06;100041.20;1767065;80;20585;-70
2022/04/02 17:16:07;;;;;;;;;;;;;;;5.12;34.14;100050.52;1767092;81;20512;-70
2022/04/02 17:18:35;;;;;;;;;;;;;;;5.09;34.22;100053.45;1754422;81;21007;-71
2022/04/02 17:21:11;;;;;;;;;;;;;;;5.03;34.30;100057.52;1766329;81;20150;-70
2022/04/02 17:23:38;;;;;;;;;;;;;;;4.97;34.38;100062.02;1757769;81;20161;-70
2022/04/02 17:26:28;;;;;;;;;;;;;;;4.90;34.44;100065.73;1761530;81;20162;-71
2022/04/02 17:28:54;;;;;;;;;;;;;;;4.85;34.55;100077.70;1760419;81;20152;-71
2022/04/02 17:31:32;;;;;;;;;;;;;;;4.78;34.63;100077.92;1758638;81;21957;-71
2022/04/02 17:34:19;;;;;;;;;;;;;;;4.70;34.69;100077.78;1758874;81;20480;-70
2022/04/02 17:36:51;;;;;;;;;;;;;;;4.63;34.79;100081.47;1763716;81;20179;-70
2022/04/02 17:39:19;;;;;;;;;;;;;;;4.57;34.86;100081.20;1749768;81;20225;-70
2022/04/02 17:41:45;;;;;;;;;;;;;;;4.48;34.94;100082.38;1766648;81;20193;-70
2022/04/02 17:44:24;;;;;;;;;;;;;;;4.46;35.00;100087.45;1766601;81;21142;-70
2022/04/02 17:46:55;;;;;;;;;;;;;;;4.40;35.03;100086.19;1766077;81;20186;-70
2022/04/02 17:49:21;;;;;;;;;;;;;;;4.33;35.11;100096.95;1765346;81;20185;-70
2022/04/02 17:51:49;;;;;;;;;;;;;;;4.30;35.15;100096.39;1766420;81;20268;-70
2022/04/02 17:54:15;;;;;;;;;;;;;;;4.25;35.20;100108.70;1751044;81;20206;-70
2022/04/02 17:56:41;;;;;;;;;;;;;;;4.21;35.26;100103.82;1742396;80;21204;-70
2022/04/02 17:59:11;;;;;;;;;;;;;;;4.16;35.30;100114.77;1736262;80;20339;-70
2022/04/02 18:01:38;;;;;;;;;;;;;;;4.10;35.34;100114.01;1750407;80;20162;-70
2022/04/02 18:04:17;;;;;;;;;;;;;;;4.04;35.39;100115.88;1765391;81;20209;-70
2022/04/02 18:06:49;;;;;;;;;;;;;;;4.01;35.43;100123.55;1765652;81;20161;-70
2022/04/02 18:09:14;;;;;;;;;;;;;;;3.95;35.53;100128.06;1760875;81;21081;-70
2022/04/02 18:11:41;;;;;;;;;;;;;;;3.90;35.57;100133.40;1744173;81;20256;-70
2022/04/02 18:14:07;;;;;;;;;;;;;;;3.85;35.64;100139.55;1765386;80;20207;-70
2022/04/02 18:16:33;;;;;;;;;;;;;;;3.84;35.70;100148.42;1757892;80;20264;-70
2022/04/02 18:19:02;;;;;;;;;;;;;;;3.78;35.75;100151.12;1763385;81;20176;-70
2022/04/02 18:21:33;;;;;;;;;;;;;;;3.72;35.83;100157.41;1764856;81;21834;-70
2022/04/02 18:23:56;;;;;;;;;;;;;;;3.67;35.91;100151.69;1763833;81;20186;-70
2022/04/02 18:26:22;;;;;;;;;;;;;;;3.67;36.00;100172.77;1764248;81;20517;-70
2022/04/02 18:28:48;;;;;;;;;;;;;;;3.66;36.07;100171.12;1764089;81;20152;-70
2022/04/02 18:31:14;;;;;;;;;;;;;;;3.63;36.11;100177.95;1763500;81;20208;-69
2022/04/02 18:33:40;;;;;;;;;;;;;;;3.60;36.20;100187.45;1759447;80;21923;-70
2022/04/02 18:36:05;;;;;;;;;;;;;;;3.57;36.28;100192.98;1765108;80;20243;-70
2022/04/02 18:38:31;;;;;;;;;;;;;;;3.50;36.38;100188.25;1765735;80;20210;-70
2022/04/02 18:41:00;;;;;;;;;;;;;;;3.44;36.44;100194.05;1756021;80;20161;-69
2022/04/02 18:43:26;;;;;;;;;;;;;;;3.38;36.51;100204.24;1756754;80;20143;-70
2022/04/02 18:45:52;;;;;;;;;;;;;;;3.29;36.63;100205.02;1752233;80;21080;-70
2022/04/02 18:48:18;;;;;;;;;;;;;;;3.24;36.69;100210.67;1749349;81;20141;-70
2022/04/02 18:50:44;;;;;;;;;;;;;;;3.21;36.78;100213.56;1730400;80;20794;-70
2022/04/02 18:53:10;;;;;;;;;;;;;;;3.18;36.87;100219.09;1741510;80;20246;-69
2022/04/02 18:55:37;;;;;;;;;;;;;;;3.16;36.99;100222.35;1755225;81;20487;-69
2022/04/02 18:58:03;;;;;;;;;;;;;;;3.12;37.11;100224.88;1760914;81;21149;-70
2022/04/02 19:00:29;;;;;;;;;;;;;;;3.09;37.25;100223.82;1743068;81;20256;-69
2022/04/02 19:02:55;;;;;;;;;;;;;;;3.07;37.37;100227.05;1732376;81;20179;-69
2022/04/02 19:05:21;;;;;;;;;;;;;;;3.03;37.47;100234.84;1737398;81;20332;-70
2022/04/02 19:07:47;;;;;;;;;;;;;;;3.00;37.60;100241.20;1729807;81;20165;-70
2022/04/02 19:10:13;;;;;;;;;;;;;;;2.96;37.71;100250.31;1734697;80;21942;-71
2022/04/02 19:12:38;;;;;;;;;;;;;;;2.94;37.87;100251.41;1755001;80;20275;-70
2022/04/02 19:15:07;;;;;;;;;;;;;;;2.92;37.98;100259.93;1759838;80;20283;-70
2022/04/02 19:17:35;;;;;;;;;;;;;;;2.88;38.10;100257.19;1754182;81;20218;-70
2022/04/02 19:20:03;;;;;;;;;;;;;;;2.84;38.20;100267.60;1759130;80;20165;-69
2022/04/02 19:22:29;;;;;;;;;;;;;;;2.80;38.29;100266.17;1734409;81;21925;-69
2022/04/02 19:24:55;;;;;;;;;;;;;;;2.75;38.38;100270.48;1757837;80;20235;-69
2022/04/02 19:27:21;;;;;;;;;;;;;;;2.71;38.50;100277.45;1761395;80;20212;-69
2022/04/02 19:29:46;;;;;;;;;;;;;;;2.67;38.57;100276.87;1760645;81;20161;-69
2022/04/02 19:32:12;;;;;;;;;;;;;;;2.65;38.68;100276.61;1744692;81;20613;-69
2022/04/02 19:34:38;;;;;;;;;;;;;;;2.62;38.76;100281.65;1753219;81;21069;-69
2022/04/02 19:37:04;;;;;;;;;;;;;;;2.58;38.88;100282.00;1753254;80;20222;-69
2022/04/02 19:39:30;;;;;;;;;;;;;;;2.55;38.97;100289.67;1725511;83;20219;-69
2022/04/02 19:41:56;;;;;;;;;;;;;;;2.50;39.05;100290.50;1755045;80;20259;-69
2022/04/02 19:44:22;;;;;;;;;;;;;;;2.45;39.14;100296.16;1759669;81;20192;-69
2022/04/02 19:46:48;;;;;;;;;;;;;;;2.39;39.22;100297.92;1761915;81;22073;-69
2022/04/02 19:49:14;;;;;;;;;;;;;;;2.34;39.33;100297.47;1761980;80;20177;-69
2022/04/02 19:51:40;;;;;;;;;;;;;;;2.32;39.43;100303.31;1762188;80;20455;-69
2022/04/02 19:54:05;;;;;;;;;;;;;;;2.29;39.52;100301.40;1741362;81;20234;-69
2022/04/02 19:56:31;;;;;;;;;;;;;;;2.24;39.61;100305.72;1748360;80;20294;-68
2022/04/02 19:58:57;;;;;;;;;;;;;;;2.19;39.71;100311.81;1768677;80;21126;-69
2022/04/02 20:01:23;;;;;;;;;;;;;;;2.13;39.79;100305.72;1748273;81;20835;-69
2022/04/02 20:03:49;;;;;;;;;;;;;;;2.08;39.88;100318.37;1761160;80;20236;-69
2022/04/02 20:06:15;;;;;;;;;;;;;;;2.05;39.97;100324.34;1761036;80;20164;-69
2022/04/02 20:08:41;;;;;;;;;;;;;;;2.02;40.07;100330.69;1762580;80;20164;-69
2022/04/02 20:11:09;;;;;;;;;;;;;;;1.99;40.18;100321.72;1759965;80;21003;-69
2022/04/02 20:13:35;;;;;;;;;;;;;;;1.93;40.28;100323.52;1757688;81;20528;-69
2022/04/02 20:16:01;;;;;;;;;;;;;;;1.88;40.34;100328.27;1739771;80;20210;-70
2022/04/02 20:18:27;;;;;;;;;;;;;;;1.84;40.41;100329.45;1729663;83;20210;-71
2022/04/02 20:20:55;;;;;;;;;;;;;;;1.78;40.49;100333.39;1749845;81;20236;-71
2022/04/02 20:23:21;;;;;;;;;;;;;;;1.74;40.57;100330.62;1760897;81;20974;-71
2022/04/02 20:25:47;;;;;;;;;;;;;;;1.70;40.67;100333.59;1760645;81;20197;-70
2022/04/02 20:28:13;;;;;;;;;;;;;;;1.64;40.76;100348.05;1760578;81;20322;-71
2022/04/02 20:30:40;;;;;;;;;;;;;;;1.61;40.93;100347.44;1760700;81;20255;-71
2022/04/02 20:33:06;;;;;;;;;;;;;;;1.57;41.00;100345.98;1761017;81;20153;-71
2022/04/02 20:35:32;;;;;;;;;;;;;;;1.53;41.08;100349.78;1757496;81;21096;-70
2022/04/02 20:37:58;;;;;;;;;;;;;;;1.48;41.15;100360.62;1755222;81;20161;-70
2022/04/02 20:40:24;;;;;;;;;;;;;;;1.44;41.24;100362.64;1752543;81;20554;-71
2022/04/02 20:42:50;;;;;;;;;;;;;;;1.39;41.34;100366.57;1702965;82;20260;-71
2022/04/02 20:45:15;;;;;;;;;;;;;;;1.35;41.47;100369.90;1735574;81;20195;-71
2022/04/02 20:47:41;;;;;;;;;;;;;;;1.32;41.54;100368.81;1760063;81;21062;-70
2022/04/02 20:50:13;;;;;;;;;;;;;;;1.27;41.65;100373.55;1737325;81;20427;-70
2022/04/02 20:52:36;;;;;;;;;;;;;;;1.23;41.73;100383.09;1726445;82;20156;-71
2022/04/02 20:55:02;;;;;;;;;;;;;;;1.19;41.80;100383.80;1731258;82;20737;-71
2022/04/02 20:57:28;;;;;;;;;;;;;;;1.16;41.90;100391.05;1731238;82;20168;-70
2022/04/02 20:59:54;;;;;;;;;;;;;;;1.13;42.02;100389.47;1730544;83;20437;-70
2022/04/02 21:02:21;;;;;;;;;;;;;;;1.12;42.14;100393.06;1731299;82;20281;-70
2022/04/02 21:04:47;;;;;;;;;;;;;;;1.07;42.23;100389.07;1730129;83;20554;-71
2022/04/02 21:07:13;;;;;;;;;;;;;;;1.02;42.29;100392.05;1730930;83;21013;-71
2022/04/02 21:09:40;;;;;;;;;;;;;;;0.98;42.38;100380.09;1731297;83;20498;-70
2022/04/02 21:12:06;;;;;;;;;;;;;;;0.94;42.46;100404.41;1730464;82;21120;-70
2022/04/02 21:14:32;;;;;;;;;;;;;;;0.92;42.50;100404.97;1730305;82;20184;-70
2022/04/02 21:16:58;;;;;;;;;;;;;;;0.88;42.60;100405.31;1730220;83;20257;-70
2022/04/02 21:19:24;;;;;;;;;;;;;;;0.84;42.66;100412.56;1731617;83;20178;-70
2022/04/02 21:21:50;;;;;;;;;;;;;;;0.81;42.74;100406.70;1731721;83;20301;-70
2022/04/02 21:24:16;;;;;;;;;;;;;;;0.78;42.79;100414.76;1731854;83;21163;-70
2022/04/02 21:26:42;;;;;;;;;;;;;;;0.74;42.86;100412.01;1732099;83;20207;-70
2022/04/02 21:29:08;;;;;;;;;;;;;;;0.72;42.91;100428.31;1746693;82;20182;-70
2022/04/02 21:31:34;;;;;;;;;;;;;;;0.68;42.98;100427.69;1752200;82;20465;-70
2022/04/02 21:34:00;;;;;;;;;;;;;;;0.65;43.03;100427.06;1740009;82;20225;-69
2022/04/02 21:36:26;;;;;;;;;;;;;;;0.61;43.10;100430.84;1751980;80;21096;-70
2022/04/02 21:38:52;;;;;;;;;;;;;;;0.57;43.16;100429.37;1751904;80;20177;-71
2022/04/02 21:41:18;;;;;;;;;;;;;;;0.54;43.24;100433.52;1752190;82;20256;-70
2022/04/02 21:43:44;;;;;;;;;;;;;;;0.50;43.30;100431.58;1745397;81;20475;-71
2022/04/02 21:46:10;;;;;;;;;;;;;;;0.46;43.35;100434.88;1732870;81;20181;-70
2022/04/02 21:48:36;;;;;;;;;;;;;;;0.41;43.42;100434.38;1726099;81;21822;-71
2022/04/02 21:51:02;;;;;;;;;;;;;;;0.37;43.47;100440.77;1721041;81;20190;-71
2022/04/02 21:53:28;;;;;;;;;;;;;;;0.36;43.53;100439.55;1711904;83;20876;-71
2022/04/02 21:55:54;;;;;;;;;;;;;;;0.32;43.58;100440.23;1703128;84;20200;-70
2022/04/02 21:58:20;;;;;;;;;;;;;;;0.28;43.65;100441.38;1703556;84;20729;-70
2022/04/02 22:00:50;;;;;;;;;;;;;;;0.25;43.69;100448.61;1703635;84;21167;-71
2022/04/02 22:03:17;;;;;;;;;;;;;;;0.21;43.76;100451.91;1718123;83;20211;-70
2022/04/02 22:05:45;;;;;;;;;;;;;;;0.20;43.82;100452.88;1732664;82;20191;-71
2022/04/02 22:08:11;;;;;;;;;;;;;;;0.14;43.89;100453.27;1732581;83;20187;-70
2022/04/02 22:10:38;;;;;;;;;;;;;;;0.07;43.97;100456.42;1732983;82;20222;-70
2022/04/02 22:13:04;;;;;;;;;;;;;;;0.01;44.03;100449.78;1720709;83;21072;-71
2022/04/02 22:15:30;;;;;;;;;;;;;;;-0.02;44.09;100458.70;1703687;84;20202;-72
2022/04/02 22:17:55;;;;;;;;;;;;;;;-0.03;44.13;100458.79;1703665;84;20284;-71
2022/04/02 22:20:22;;;;;;;;;;;;;;;-0.06;44.19;100460.30;1703407;83;20728;-71
2022/04/02 22:22:48;;;;;;;;;;;;;;;-0.10;44.25;100462.75;1711780;83;20187;-71
2022/04/02 22:25:14;;;;;;;;;;;;;;;-0.12;44.33;100464.19;1732314;83;21780;-71
2022/04/02 22:27:40;;;;;;;;;;;;;;;-0.15;44.38;100459.61;1732852;82;20233;-72
2022/04/02 22:30:08;;;;;;;;;;;;;;;-0.16;44.45;100463.16;1732790;82;20206;-71
2022/04/02 22:32:33;;;;;;;;;;;;;;;-0.21;44.50;100460.84;1727588;82;20194;-71
2022/04/02 22:35:01;;;;;;;;;;;;;;;-0.24;44.58;100468.06;1703447;84;20188;-71
2022/04/02 22:37:27;;;;;;;;;;;;;;;-0.29;44.63;100475.39;1727961;82;21137;-71
2022/04/02 22:39:53;;;;;;;;;;;;;;;-0.32;44.72;100474.28;1731952;83;20576;-71
2022/04/02 22:42:18;;;;;;;;;;;;;;;-0.39;44.81;100476.47;1754510;81;20200;-71
2022/04/02 22:44:44;;;;;;;;;;;;;;;-0.43;44.88;100474.98;1762465;81;20929;-71
2022/04/02 22:47:10;;;;;;;;;;;;;;;-0.45;44.92;100477.30;1762736;81;20169;-71
2022/04/02 22:49:36;;;;;;;;;;;;;;;-0.49;45.00;100474.53;1762653;81;21176;-71
2022/04/02 22:52:02;;;;;;;;;;;;;;;-0.54;45.06;100467.80;1762035;81;20228;-71
2022/04/02 22:54:28;;;;;;;;;;;;;;;-0.57;45.12;100478.48;1762771;81;20215;-71
2022/04/02 22:56:54;;;;;;;;;;;;;;;-0.59;45.18;100481.65;1762495;81;20236;-71
2022/04/02 22:59:20;;;;;;;;;;;;;;;-0.61;45.25;100488.77;1762406;81;20162;-71
2022/04/02 23:01:46;;;;;;;;;;;;;;;-0.64;45.34;100486.35;1762389;80;21166;-71
2022/04/02 23:04:12;;;;;;;;;;;;;;;-0.68;45.42;100491.41;1761966;81;20891;-71
2022/04/02 23:06:38;;;;;;;;;;;;;;;-0.72;45.46;100493.84;1762584;81;20307;-71
2022/04/02 23:09:04;;;;;;;;;;;;;;;-0.75;45.55;100494.50;1762318;81;20212;-71
2022/04/02 23:11:30;;;;;;;;;;;;;;;-0.79;45.63;100502.17;1762650;81;20200;-71
2022/04/02 23:13:56;;;;;;;;;;;;;;;-0.81;45.69;100504.05;1762607;81;21132;-71
2022/04/02 23:16:22;;;;;;;;;;;;;;;-0.88;45.75;100498.33;1762248;81;20255;-71
2022/04/02 23:18:48;;;;;;;;;;;;;;;-0.95;45.85;100504.06;1762582;81;20267;-71
2022/04/02 23:21:14;;;;;;;;;;;;;;;-1.01;45.92;100506.58;1762497;81;20178;-71
2022/04/02 23:23:40;;;;;;;;;;;;;;;-1.04;46.00;100509.39;1762470;81;20235;-71
2022/04/02 23:26:06;;;;;;;;;;;;;;;-1.06;46.07;100504.72;1762013;81;21186;-71
2022/04/02 23:28:32;;;;;;;;;;;;;;;-1.10;46.13;100512.38;1762613;81;20192;-71
2022/04/02 23:30:58;;;;;;;;;;;;;;;-1.14;46.23;100506.95;1761808;81;20807;-71
2022/04/02 23:33:24;;;;;;;;;;;;;;;-1.19;46.33;100509.00;1762179;81;20232;-71
2022/04/02 23:35:51;;;;;;;;;;;;;;;-1.25;46.42;100506.77;1762115;81;20876;-71
2022/04/02 23:38:17;;;;;;;;;;;;;;;-1.32;46.49;100510.68;1759041;81;21790;-71
2022/04/02 23:40:45;;;;;;;;;;;;;;;-1.37;46.57;100517.48;1760682;81;20288;-71
2022/04/02 23:43:10;;;;;;;;;;;;;;;-1.39;46.66;100517.21;1760379;81;20150;-71
2022/04/02 23:45:36;;;;;;;;;;;;;;;-1.45;46.76;100518.89;1760728;81;20208;-71
2022/04/02 23:48:03;;;;;;;;;;;;;;;-1.49;46.88;100513.47;1760628;81;20177;-71
2022/04/02 23:50:29;;;;;;;;;;;;;;;-1.53;47.00;100517.57;1760793;81;21184;-71
2022/04/02 23:52:55;;;;;;;;;;;;;;;-1.53;47.10;100513.65;1760129;81;20276;-71
2022/04/02 23:55:21;;;;;;;;;;;;;;;-1.57;47.22;100517.83;1760444;81;20792;-71
2022/04/02 23:57:47;;;;;;;;;;;;;;;-1.60;47.33;100517.56;1760530;81;20244;-71
